Time;durP1;ratioP1;P1;durP2;ratioP2;P2;SDS_P1;SDS_P2;PMS_P1;PMS_P2;Temp;Humidity;BMP_temperature;BMP_pressure;BME280_temperature;BME280_humidity;BME280_pressure;Samples;Min_cycle;Max_cycle;Signal;HPM_P1;HPM_P2
2021/08/07 00:00:16;;;;;;;1.83;1.48;;;;;;;22.68;53.69;100328.53;5079413;28;20028;-73
2021/08/07 00:02:42;;;;;;;1.60;0.93;;;;;;;22.70;53.60;100324.06;5079390;28;20041;-73
2021/08/07 00:05:07;;;;;;;3.80;1.40;;;;;;;22.72;53.63;100332.81;5114388;28;20056;-73
2021/08/07 00:07:34;;;;;;;1.60;0.90;;;;;;;22.70;53.41;100330.22;5116839;28;20469;-73
2021/08/07 00:10:00;;;;;;;2.17;1.27;;;;;;;22.70;53.40;100329.34;5098656;28;20031;-73
2021/08/07 00:12:26;;;;;;;2.00;1.27;;;;;;;22.69;53.58;100331.13;5114569;28;20035;-73
2021/08/07 00:14:51;;;;;;;1.00;0.80;;;;;;;22.69;53.71;100330.25;5116374;28;20032;-74
2021/08/07 00:17:16;;;;;;;1.90;1.13;;;;;;;22.69;53.11;100331.13;5081371;28;20118;-73
2021/08/07 00:19:42;;;;;;;1.92;0.80;;;;;;;22.68;53.61;100323.25;5079333;28;20114;-73
2021/08/07 00:22:07;;;;;;;0.90;0.70;;;;;;;22.71;53.38;100328.44;5096082;28;20074;-73
2021/08/07 00:24:32;;;;;;;2.58;1.40;;;;;;;22.70;53.65;100331.97;5096059;28;20023;-73
2021/08/07 00:26:58;;;;;;;2.05;0.93;;;;;;;22.68;53.66;100325.88;5079372;28;20024;-73
2021/08/07 00:29:23;;;;;;;2.47;1.48;;;;;;;22.70;53.50;100331.97;5079036;28;20361;-73
2021/08/07 00:31:49;;;;;;;1.77;1.10;;;;;;;22.70;53.55;100329.34;5114090;28;20042;-73
2021/08/07 00:34:14;;;;;;;3.05;1.13;;;;;;;22.70;53.68;100331.97;5095006;28;20023;-73
2021/08/07 00:36:40;;;;;;;1.35;0.80;;;;;;;22.70;53.62;100338.13;5114221;28;20358;-73
2021/08/07 00:39:05;;;;;;;2.35;1.20;;;;;;;22.67;53.51;100327.66;5113858;28;20119;-73
2021/08/07 00:41:31;;;;;;;1.08;0.60;;;;;;;22.68;53.57;100342.56;5095776;28;20047;-73
2021/08/07 00:43:56;;;;;;;2.58;1.20;;;;;;;22.64;53.69;100327.75;5095707;28;20020;-73
2021/08/07 00:46:22;;;;;;;2.28;1.35;;;;;;;22.68;53.74;100336.44;5078910;28;20034;-73
2021/08/07 00:48:47;;;;;;;1.63;1.05;;;;;;;22.70;53.54;100334.63;5095816;28;20077;-73
2021/08/07 00:51:13;;;;;;;3.25;1.48;;;;;;;22.65;53.49;100325.97;5095818;28;20031;-73
2021/08/07 00:53:38;;;;;;;1.13;1.00;;;;;;;22.69;53.72;100324.97;5078646;28;20028;-73
2021/08/07 00:56:03;;;;;;;1.58;0.82;;;;;;;22.69;53.61;100332.88;5095522;28;20034;-73
2021/08/07 00:58:29;;;;;;;1.10;0.80;;;;;;;22.69;53.65;100332.88;5078570;28;20066;-73
2021/08/07 01:00:55;;;;;;;1.33;1.02;;;;;;;22.69;53.59;100330.25;5113832;28;20019;-73
2021/08/07 01:03:34;;;;;;;4.35;1.35;;;;;;;22.68;53.57;100326.75;5095662;28;20038;-73
2021/08/07 01:06:10;;;;;;;1.27;0.88;;;;;;;22.67;53.57;100325.03;5095227;28;20039;-73
2021/08/07 01:08:42;;;;;;;1.77;1.40;;;;;;;22.66;53.64;100317.16;5095613;28;20031;-73
2021/08/07 01:11:31;;;;;;;1.20;0.90;;;;;;;22.66;53.62;100314.53;5095399;28;20030;-73
2021/08/07 01:14:01;;;;;;;1.52;1.00;;;;;;;22.63;53.70;100315.47;5113713;28;20059;-73
2021/08/07 01:16:34;;;;;;;1.20;0.77;;;;;;;22.65;53.65;100313.66;5113707;28;20016;-73
2021/08/07 01:19:00;;;;;;;1.83;1.35;;;;;;;22.60;53.53;100304.16;5113709;28;20441;-73
2021/08/07 01:21:33;;;;;;;1.25;0.75;;;;;;;22.63;53.66;100311.97;5078356;28;20123;-73
2021/08/07 01:24:13;;;;;;;1.70;1.00;;;;;;;22.62;53.49;100307.59;5095337;28;20023;-73
2021/08/07 01:27:08;;;;;;;1.90;0.95;;;;;;;22.60;53.54;100307.66;5113481;28;20469;-73
2021/08/07 01:29:34;;;;;;;3.75;1.60;;;;;;;22.64;53.60;100318.97;5113433;28;20024;-73
2021/08/07 01:32:00;;;;;;;1.33;0.88;;;;;;;22.64;53.58;100309.28;5095363;28;20023;-73
2021/08/07 01:34:25;;;;;;;1.27;0.90;;;;;;;22.62;53.72;100310.25;5078485;28;20031;-73
2021/08/07 01:36:51;;;;;;;1.30;0.80;;;;;;;22.57;53.75;100299.88;5095239;28;20024;-73
2021/08/07 01:39:16;;;;;;;1.15;0.70;;;;;;;22.61;53.57;100304.09;5095204;28;20027;-73
2021/08/07 01:41:41;;;;;;;1.92;1.20;;;;;;;22.62;53.76;100308.47;5095254;28;20027;-73
2021/08/07 01:44:07;;;;;;;1.60;0.80;;;;;;;22.61;53.77;100305.88;5095168;28;20574;-73
2021/08/07 01:46:58;;;;;;;2.17;0.90;;;;;;;22.60;53.79;100302.38;5096972;28;20020;-73
2021/08/07 01:49:53;;;;;;;1.20;0.90;;;;;;;22.63;53.66;100309.34;5098119;28;20023;-73
2021/08/07 01:52:25;;;;;;;1.10;0.70;;;;;;;22.61;53.71;100304.09;5105591;28;20047;-73
2021/08/07 01:55:02;;;;;;;2.58;0.95;;;;;;;22.60;53.53;100293.59;5116762;28;20023;-73
2021/08/07 01:57:30;;;;;;;1.08;0.75;;;;;;;22.62;53.60;100297.06;5098583;28;20050;-73
2021/08/07 01:59:57;;;;;;;2.15;0.85;;;;;;;22.62;53.71;100299.69;5116907;28;20106;-73
2021/08/07 02:02:24;;;;;;;2.22;0.88;;;;;;;22.61;53.61;100306.75;5116800;28;20034;-73
2021/08/07 02:04:49;;;;;;;1.05;0.93;;;;;;;22.57;53.67;100291.09;5116741;28;20031;-73
2021/08/07 02:07:16;;;;;;;2.47;1.17;;;;;;;22.61;53.61;100295.34;5094830;28;20059;-73
2021/08/07 02:09:42;;;;;;;2.17;0.73;;;;;;;22.59;53.59;100297.19;5096340;28;20028;-73
2021/08/07 02:12:08;;;;;;;1.88;0.82;;;;;;;22.54;53.52;100284.13;5078208;28;20024;-73
2021/08/07 02:14:35;;;;;;;1.40;0.70;;;;;;;22.61;53.60;100295.34;5095427;28;20062;-73
2021/08/07 02:17:02;;;;;;;2.10;1.10;;;;;;;22.60;53.60;100293.59;5096337;28;20030;-73
2021/08/07 02:19:29;;;;;;;1.75;0.93;;;;;;;22.56;53.58;100279.69;5095929;28;20036;-73
2021/08/07 02:21:55;;;;;;;1.05;0.82;;;;;;;22.57;53.44;100289.31;5095930;28;20044;-73
2021/08/07 02:24:27;;;;;;;1.85;1.20;;;;;;;22.59;53.09;100292.75;5111690;28;20118;-73
2021/08/07 02:26:55;;;;;;;1.38;0.80;;;;;;;22.56;53.63;100282.31;5096097;28;20026;-73
2021/08/07 02:29:21;;;;;;;1.70;1.10;;;;;;;22.57;53.50;100291.09;5095975;28;20044;-73
2021/08/07 02:31:47;;;;;;;1.60;0.80;;;;;;;22.56;53.87;100287.59;5094632;28;20028;-73
2021/08/07 02:34:13;;;;;;;1.73;0.90;;;;;;;22.59;53.61;100286.63;5095753;28;20081;-73
2021/08/07 02:36:40;;;;;;;1.98;0.82;;;;;;;22.55;53.65;100285.88;5094479;28;20377;-73
2021/08/07 02:39:06;;;;;;;1.75;0.82;;;;;;;22.56;53.57;100289.38;5095754;28;20509;-73
2021/08/07 02:41:32;;;;;;;1.05;0.80;;;;;;;22.55;53.51;100282.38;5094480;28;20046;-73
2021/08/07 02:43:59;;;;;;;1.13;0.77;;;;;;;22.54;53.46;100285.91;5094335;28;20035;-73
2021/08/07 02:46:27;;;;;;;1.45;0.77;;;;;;;22.55;53.42;100288.50;5111239;28;20363;-73
2021/08/07 02:48:53;;;;;;;1.40;0.80;;;;;;;22.57;53.54;100291.09;5111120;28;20420;-73
2021/08/07 02:51:20;;;;;;;1.52;0.82;;;;;;;22.54;53.56;100288.53;5077184;28;20036;-73
2021/08/07 02:53:47;;;;;;;2.35;1.30;;;;;;;22.55;53.74;100293.78;5077149;28;20485;-73
2021/08/07 02:56:13;;;;;;;1.15;0.80;;;;;;;22.56;53.61;100287.59;5094379;28;20114;-73
2021/08/07 02:58:40;;;;;;;1.08;0.70;;;;;;;22.57;53.58;100297.22;5110128;28;20447;-73
2021/08/07 03:01:06;;;;;;;1.15;0.88;;;;;;;22.54;53.70;100281.50;5093845;28;20020;-73
2021/08/07 03:03:31;;;;;;;1.52;1.20;;;;;;;22.54;53.39;100283.28;5111090;28;20520;-73
2021/08/07 03:05:57;;;;;;;1.75;0.90;;;;;;;22.56;53.58;100279.69;5079269;28;20470;-73
2021/08/07 03:08:22;;;;;;;2.55;1.42;;;;;;;22.56;53.61;100289.38;5116142;28;20035;-73
2021/08/07 03:10:48;;;;;;;2.25;0.98;;;;;;;22.56;53.49;100287.59;5116462;28;20078;-74
2021/08/07 03:13:13;;;;;;;2.45;1.25;;;;;;;22.53;53.51;100281.53;5098431;28;20027;-74
2021/08/07 03:15:39;;;;;;;1.60;0.68;;;;;;;22.54;53.57;100289.41;5080185;28;20370;-74
2021/08/07 03:18:04;;;;;;;1.83;1.02;;;;;;;22.56;53.50;100292.88;5086295;28;20469;-74
2021/08/07 03:20:32;;;;;;;1.17;0.70;;;;;;;22.56;53.71;100289.38;5084597;28;20031;-74
2021/08/07 03:23:00;;;;;;;2.42;0.88;;;;;;;22.53;53.50;100292.94;5102387;28;20107;-73
2021/08/07 03:25:26;;;;;;;1.48;0.82;;;;;;;22.53;53.58;100292.09;5122692;28;20023;-74
2021/08/07 03:27:52;;;;;;;0.70;0.60;;;;;;;22.52;53.57;100288.59;5084429;28;20147;-74
2021/08/07 03:30:17;;;;;;;1.75;0.77;;;;;;;22.51;53.54;100288.63;5083173;28;20048;-74
2021/08/07 03:32:43;;;;;;;2.00;0.93;;;;;;;22.54;53.62;100292.03;5081272;28;20470;-74
2021/08/07 03:35:08;;;;;;;0.95;0.70;;;;;;;22.51;53.48;100288.63;5117111;28;20111;-74
2021/08/07 03:37:34;;;;;;;1.55;0.93;;;;;;;22.53;53.57;100294.72;5081509;28;20035;-74
2021/08/07 03:39:59;;;;;;;1.00;0.70;;;;;;;22.51;53.51;100281.59;5098031;28;20036;-74
2021/08/07 03:42:25;;;;;;;0.90;0.60;;;;;;;22.53;53.63;100286.81;5080104;28;20031;-74
2021/08/07 03:44:50;;;;;;;2.42;0.77;;;;;;;22.51;53.56;100280.72;5116178;28;20071;-74
2021/08/07 03:47:15;;;;;;;1.58;0.90;;;;;;;22.52;53.44;100285.09;5080774;28;20015;-74
2021/08/07 03:49:41;;;;;;;0.93;0.50;;;;;;;22.52;53.47;100285.94;5081188;28;20159;-74
2021/08/07 03:52:06;;;;;;;1.13;0.60;;;;;;;22.53;53.63;100286.81;5096844;28;20031;-74
2021/08/07 03:54:32;;;;;;;1.23;0.80;;;;;;;22.52;53.67;100285.09;5097156;28;20036;-74
2021/08/07 03:56:57;;;;;;;0.90;0.75;;;;;;;22.51;53.43;100284.22;5098098;28;20066;-74
2021/08/07 03:59:23;;;;;;;1.00;0.73;;;;;;;22.51;53.58;100283.34;5080555;28;20028;-74
2021/08/07 04:01:48;;;;;;;1.73;0.90;;;;;;;22.51;53.49;100289.50;5080535;28;20027;-74
2021/08/07 04:04:13;;;;;;;1.15;0.80;;;;;;;22.53;53.54;100282.41;5096587;28;20032;-74
2021/08/07 04:06:39;;;;;;;1.05;0.50;;;;;;;22.53;53.48;100284.19;5079766;28;20059;-74
2021/08/07 04:09:04;;;;;;;2.22;0.75;;;;;;;22.47;53.60;100285.22;5114303;28;20062;-74
2021/08/07 04:11:29;;;;;;;1.50;0.80;;;;;;;22.50;53.17;100281.63;5079222;28;20061;-74
2021/08/07 04:13:55;;;;;;;0.88;0.60;;;;;;;22.52;53.48;100280.69;5079258;28;20027;-74
2021/08/07 04:16:20;;;;;;;1.08;0.65;;;;;;;22.48;53.42;100276.41;5096264;28;20024;-74
2021/08/07 04:18:47;;;;;;;1.20;0.70;;;;;;;22.50;53.55;100274.59;5095955;28;20381;-74
2021/08/07 04:21:13;;;;;;;1.33;0.82;;;;;;;22.50;53.55;100269.31;5114052;28;20027;-75
2021/08/07 04:23:38;;;;;;;1.63;0.90;;;;;;;22.50;53.60;100271.94;5095919;28;20042;-74
2021/08/07 04:26:03;;;;;;;1.85;1.02;;;;;;;22.45;53.45;100264.22;5095855;28;20164;-74
2021/08/07 04:28:29;;;;;;;2.22;0.90;;;;;;;22.50;53.55;100277.22;5078895;28;20034;-74
2021/08/07 04:30:54;;;;;;;1.60;0.93;;;;;;;22.51;53.40;100273.69;5095853;28;20469;-74
2021/08/07 04:33:19;;;;;;;1.48;0.80;;;;;;;22.51;53.48;100276.31;5114027;28;20028;-74
2021/08/07 04:35:45;;;;;;;1.65;1.00;;;;;;;22.46;53.55;100271.16;5078971;28;20059;-74
2021/08/07 04:38:10;;;;;;;1.30;0.93;;;;;;;22.51;53.46;100275.44;5114168;28;20039;-74
2021/08/07 04:40:36;;;;;;;1.35;0.60;;;;;;;22.47;53.54;100266.75;5114212;28;20034;-74
2021/08/07 04:43:02;;;;;;;0.90;0.80;;;;;;;22.46;53.46;100265.91;5113899;28;20095;-74
2021/08/07 04:45:27;;;;;;;1.10;0.80;;;;;;;22.50;53.41;100274.59;5114242;28;20115;-74
2021/08/07 04:47:59;;;;;;;1.25;0.60;;;;;;;22.51;53.48;100272.81;5095624;28;20027;-74
2021/08/07 04:50:26;;;;;;;2.30;1.23;;;;;;;22.50;53.56;100269.31;5113799;28;20046;-74
2021/08/07 04:52:53;;;;;;;1.50;1.17;;;;;;;22.48;53.51;100265.00;5113890;28;20473;-74
2021/08/07 04:55:18;;;;;;;1.30;0.80;;;;;;;22.52;53.45;100275.41;5078717;28;20032;-74
2021/08/07 04:57:44;;;;;;;1.67;1.00;;;;;;;22.48;53.40;100268.50;5095610;28;20505;-75
2021/08/07 05:00:11;;;;;;;0.90;0.60;;;;;;;22.52;53.51;100262.22;5095618;28;20032;-74
2021/08/07 05:02:36;;;;;;;1.38;0.57;;;;;;;22.50;53.42;100274.59;5095608;28;20032;-74
2021/08/07 05:05:02;;;;;;;1.73;0.80;;;;;;;22.50;53.39;100261.41;5078637;28;20023;-74
2021/08/07 05:07:31;;;;;;;1.42;0.82;;;;;;;22.50;53.48;100261.41;5113714;28;20056;-74
2021/08/07 05:09:58;;;;;;;1.02;0.65;;;;;;;22.45;53.33;100256.31;5113943;28;20031;-74
2021/08/07 05:12:26;;;;;;;0.77;0.70;;;;;;;22.54;53.34;100267.47;5095636;28;20030;-74
2021/08/07 05:14:52;;;;;;;2.40;0.70;;;;;;;22.53;53.26;100268.38;5079392;28;20046;-74
2021/08/07 05:17:17;;;;;;;0.95;0.65;;;;;;;22.55;53.21;100270.06;5095335;28;20028;-74
2021/08/07 05:19:43;;;;;;;1.30;0.80;;;;;;;22.53;53.20;100274.50;5078532;28;20057;-74
2021/08/07 05:22:08;;;;;;;1.50;0.63;;;;;;;22.56;53.37;100279.69;5081455;28;20024;-74
2021/08/07 05:24:33;;;;;;;1.55;0.95;;;;;;;22.51;53.45;100265.78;5117760;28;20038;-74
2021/08/07 05:26:58;;;;;;;1.15;1.02;;;;;;;22.57;53.06;100270.88;5082420;28;20028;-74
2021/08/07 05:29:24;;;;;;;0.98;0.80;;;;;;;22.57;53.25;100268.25;5082245;28;20076;-74
2021/08/07 05:31:49;;;;;;;1.85;0.80;;;;;;;22.53;53.51;100263.09;5099215;28;20027;-74
2021/08/07 05:34:14;;;;;;;1.02;0.77;;;;;;;22.57;53.32;100264.75;5099118;28;20027;-75
2021/08/07 05:36:40;;;;;;;1.60;0.63;;;;;;;22.56;53.27;100265.66;5082285;28;20054;-74
2021/08/07 05:39:05;;;;;;;1.10;0.70;;;;;;;22.55;53.45;100259.50;5117331;28;20072;-74
2021/08/07 05:41:30;;;;;;;0.93;0.60;;;;;;;22.55;53.42;100267.41;5098920;28;20031;-74
2021/08/07 05:43:56;;;;;;;0.70;0.50;;;;;;;22.58;53.24;100269.09;5082122;28;20027;-74
2021/08/07 05:46:21;;;;;;;1.95;1.00;;;;;;;22.59;53.31;100262.94;5099925;28;20020;-75
2021/08/07 05:48:47;;;;;;;1.42;0.82;;;;;;;22.60;53.21;100262.84;5118171;28;20461;-75
2021/08/07 05:51:12;;;;;;;2.22;0.75;;;;;;;22.62;53.13;100266.31;5099315;28;20043;-74
2021/08/07 05:53:38;;;;;;;1.33;0.68;;;;;;;22.66;53.20;100262.66;5082027;28;20104;-74
2021/08/07 05:56:03;;;;;;;1.15;0.60;;;;;;;22.70;52.95;100263.44;5081900;28;20386;-74
2021/08/07 05:58:31;;;;;;;1.60;0.90;;;;;;;22.75;52.73;100265.00;5099074;28;20024;-75
2021/08/07 06:00:57;;;;;;;2.40;1.00;;;;;;;22.79;52.73;100257.91;5117120;28;20102;-75
2021/08/07 06:03:22;;;;;;;1.48;0.98;;;;;;;22.82;52.69;100254.31;5098581;28;20157;-74
2021/08/07 06:05:47;;;;;;;1.45;0.60;;;;;;;22.87;52.67;100250.59;5081355;28;20088;-74
2021/08/07 06:08:13;;;;;;;1.75;0.95;;;;;;;22.91;52.38;100246.09;5116689;28;20020;-74
2021/08/07 06:10:38;;;;;;;1.67;0.95;;;;;;;22.86;52.51;100254.16;5116527;28;20080;-75
2021/08/07 06:13:04;;;;;;;0.85;0.63;;;;;;;22.90;52.70;100258.41;5081363;28;20028;-75
2021/08/07 06:15:29;;;;;;;0.98;0.88;;;;;;;22.99;52.38;100263.38;5098476;28;20438;-74
2021/08/07 06:17:56;;;;;;;1.48;0.80;;;;;;;23.03;52.33;100257.09;5098303;28;20036;-75
2021/08/07 06:20:26;;;;;;;1.90;0.90;;;;;;;22.93;52.43;100241.63;5117645;28;20024;-75
2021/08/07 06:22:51;;;;;;;1.35;0.60;;;;;;;22.92;52.56;100242.56;5098294;28;20043;-75
2021/08/07 06:25:17;;;;;;;0.68;0.60;;;;;;;22.93;52.82;100246.91;5116432;28;20370;-73
2021/08/07 06:27:42;;;;;;;1.10;0.70;;;;;;;23.04;52.39;100243.00;5081374;28;20027;-74
2021/08/07 06:30:08;;;;;;;1.58;0.90;;;;;;;23.08;52.40;100244.63;5117355;28;20036;-75
2021/08/07 06:32:34;;;;;;;0.88;0.70;;;;;;;23.11;52.33;100241.88;5083120;28;20023;-75
2021/08/07 06:34:59;;;;;;;1.90;0.90;;;;;;;23.20;51.97;100237.22;5082030;28;20618;-74
2021/08/07 06:37:25;;;;;;;1.05;0.80;;;;;;;23.21;52.06;100241.59;5100213;28;20076;-75
2021/08/07 06:39:50;;;;;;;0.98;0.63;;;;;;;23.28;52.09;100241.31;5100213;28;20120;-75
2021/08/07 06:42:18;;;;;;;0.45;0.45;;;;;;;23.27;51.99;100241.38;5100115;28;20054;-75
2021/08/07 06:44:43;;;;;;;1.05;0.57;;;;;;;23.30;52.06;100244.75;5083970;28;20032;-74
2021/08/07 06:47:09;;;;;;;1.40;0.77;;;;;;;23.28;52.11;100240.44;5099766;28;20058;-74
2021/08/07 06:49:34;;;;;;;1.10;0.82;;;;;;;23.31;52.06;100248.28;5099444;28;20018;-75
2021/08/07 06:52:00;;;;;;;1.65;0.95;;;;;;;23.19;52.21;100240.78;5099791;28;20122;-74
2021/08/07 06:54:28;;;;;;;1.38;0.63;;;;;;;23.14;52.60;100252.34;5099478;28;20135;-74
2021/08/07 06:56:54;;;;;;;2.20;0.80;;;;;;;23.09;52.64;100254.28;5082144;28;20058;-75
2021/08/07 06:59:20;;;;;;;1.40;0.70;;;;;;;23.02;52.86;100247.47;5098785;28;20059;-74
2021/08/07 07:01:48;;;;;;;1.95;0.70;;;;;;;22.93;53.01;100247.78;5099743;28;20032;-74
2021/08/07 07:04:13;;;;;;;2.03;0.90;;;;;;;22.96;52.85;100250.31;5099488;28;20035;-74
2021/08/07 07:06:42;;;;;;;0.90;0.73;;;;;;;22.92;52.90;100250.47;5117408;28;20055;-74
2021/08/07 07:09:09;;;;;;;0.60;0.45;;;;;;;22.92;53.13;100261.00;5082532;28;20024;-74
2021/08/07 07:11:37;;;;;;;2.47;0.73;;;;;;;22.88;53.22;100257.59;5100503;28;20027;-74
2021/08/07 07:14:03;;;;;;;0.93;0.65;;;;;;;22.90;53.16;100260.19;5081835;28;20069;-74
2021/08/07 07:16:30;;;;;;;0.68;0.63;;;;;;;22.87;53.08;100257.66;5115730;28;20019;-75
2021/08/07 07:18:55;;;;;;;1.13;0.73;;;;;;;22.85;53.16;100260.31;5097185;28;20034;-74
2021/08/07 07:21:21;;;;;;;0.88;0.80;;;;;;;22.91;53.00;100261.91;5097052;28;20023;-74
2021/08/07 07:23:49;;;;;;;1.83;0.80;;;;;;;22.88;53.41;100260.22;5099038;28;20035;-74
2021/08/07 07:26:17;;;;;;;4.57;1.10;;;;;;;22.94;53.17;100272.38;5099142;28;20442;-74
2021/08/07 07:28:42;;;;;;;1.25;0.77;;;;;;;22.90;52.76;100252.28;5116440;28;20030;-74
2021/08/07 07:31:07;;;;;;;2.97;0.75;;;;;;;22.95;52.83;100250.38;5099156;28;20028;-74
2021/08/07 07:33:33;;;;;;;1.15;1.05;;;;;;;22.99;52.74;100258.09;5115262;28;20031;-74
2021/08/07 07:35:58;;;;;;;1.10;0.82;;;;;;;23.02;52.64;100259.78;5114919;28;20024;-74
2021/08/07 07:38:25;;;;;;;1.38;0.80;;;;;;;22.99;52.57;100259.88;5096739;28;20035;-74
2021/08/07 07:40:52;;;;;;;0.70;0.57;;;;;;;23.12;52.39;100259.44;5114946;28;20024;-73
2021/08/07 07:43:20;;;;;;;1.08;0.68;;;;;;;23.14;52.27;100267.28;5114380;28;20034;-75
2021/08/07 07:45:46;;;;;;;1.42;0.70;;;;;;;23.12;52.55;100262.06;5097085;28;20057;-75
2021/08/07 07:48:11;;;;;;;2.47;0.60;;;;;;;23.12;52.34;100256.78;5096400;28;20023;-76
2021/08/07 07:50:37;;;;;;;1.08;0.70;;;;;;;23.20;52.40;100255.69;5096420;28;20035;-76
2021/08/07 07:53:03;;;;;;;1.33;0.75;;;;;;;23.16;52.46;100247.88;5114622;28;20079;-76
2021/08/07 07:55:29;;;;;;;0.77;0.65;;;;;;;23.15;52.54;100253.19;5096786;28;20040;-76
2021/08/07 07:57:58;;;;;;;1.20;0.70;;;;;;;23.19;52.45;100246.06;5096800;28;20106;-76
2021/08/07 08:00:24;;;;;;;1.05;0.70;;;;;;;23.20;52.44;100248.63;5098015;28;20049;-76
2021/08/07 08:02:51;;;;;;;1.10;0.73;;;;;;;23.21;52.16;100229.25;5080709;28;20037;-76
2021/08/07 08:05:16;;;;;;;1.23;0.65;;;;;;;23.32;52.29;100247.34;5097585;28;20019;-76
2021/08/07 08:07:42;;;;;;;1.10;0.70;;;;;;;23.32;52.14;100236.81;5096469;28;20054;-76
2021/08/07 08:10:08;;;;;;;1.40;0.80;;;;;;;23.34;52.13;100245.53;5096480;28;20525;-76
2021/08/07 08:12:33;;;;;;;1.00;0.65;;;;;;;23.35;52.16;100242.84;5096206;28;20080;-76
2021/08/07 08:14:59;;;;;;;1.08;0.70;;;;;;;23.32;52.08;100228.88;5096411;28;20032;-76
2021/08/07 08:17:24;;;;;;;1.13;0.80;;;;;;;23.42;51.97;100233.78;5079357;28;20059;-76
2021/08/07 08:19:49;;;;;;;1.55;0.70;;;;;;;23.44;51.75;100241.66;5114509;28;20036;-76
2021/08/07 08:22:15;;;;;;;1.08;0.63;;;;;;;23.37;51.98;100235.72;5096296;28;20475;-76
2021/08/07 08:24:40;;;;;;;3.10;0.90;;;;;;;23.35;52.10;100234.94;5096352;28;20122;-76
2021/08/07 08:27:06;;;;;;;1.17;0.70;;;;;;;23.34;51.94;100240.25;5096243;28;20027;-76
2021/08/07 08:29:31;;;;;;;1.40;0.70;;;;;;;23.35;52.00;100240.22;5079188;28;20494;-76
2021/08/07 08:31:56;;;;;;;1.55;0.70;;;;;;;23.27;52.36;100233.44;5114338;28;20035;-76
2021/08/07 08:34:22;;;;;;;1.05;0.82;;;;;;;23.20;52.08;100230.19;5096126;28;20491;-76
2021/08/07 08:36:47;;;;;;;1.63;0.98;;;;;;;23.21;52.31;100234.53;5096119;28;20032;-76
2021/08/07 08:39:12;;;;;;;1.52;0.85;;;;;;;23.12;52.37;100233.06;5096052;28;20092;-76
2021/08/07 08:41:38;;;;;;;1.73;0.75;;;;;;;23.17;52.61;100243.47;5079106;28;20032;-76
2021/08/07 08:44:04;;;;;;;1.05;0.52;;;;;;;23.13;52.48;100239.19;5096008;28;20473;-76
2021/08/07 08:46:30;;;;;;;1.00;0.68;;;;;;;23.16;52.43;100244.38;5113985;28;20055;-76
2021/08/07 08:48:56;;;;;;;1.15;0.75;;;;;;;23.14;52.44;100244.41;5113955;28;20020;-76
2021/08/07 08:51:25;;;;;;;0.73;0.57;;;;;;;23.15;52.70;100245.28;5095747;28;20077;-76
2021/08/07 08:53:53;;;;;;;1.50;0.80;;;;;;;23.14;52.62;100243.56;5079359;28;20536;-76
2021/08/07 08:56:18;;;;;;;1.35;0.50;;;;;;;23.07;52.63;100236.78;5115790;28;20045;-76
2021/08/07 08:58:45;;;;;;;1.00;0.60;;;;;;;23.16;52.49;100236.47;5100090;28;20027;-76
2021/08/07 09:01:10;;;;;;;1.63;0.73;;;;;;;23.27;51.96;100233.44;5083062;28;20040;-76
2021/08/07 09:03:36;;;;;;;0.63;0.60;;;;;;;23.26;52.25;100229.09;5099837;28;20100;-76
2021/08/07 09:06:02;;;;;;;0.70;0.40;;;;;;;23.21;52.15;100220.47;5100286;28;20110;-76
2021/08/07 09:08:28;;;;;;;0.55;0.35;;;;;;;23.19;52.28;100214.41;5099794;28;20024;-76
2021/08/07 09:11:15;;;;;;;1.10;0.68;;;;;;;23.30;52.12;100221.03;5099739;28;20027;-76
2021/08/07 09:13:40;;;;;;;0.90;0.60;;;;;;;23.28;51.92;100211.44;5099797;28;20032;-76
2021/08/07 09:16:08;;;;;;;1.45;0.73;;;;;;;23.29;52.10;100203.47;5082855;28;20077;-76
2021/08/07 09:18:33;;;;;;;1.20;0.70;;;;;;;23.28;52.09;100199.09;5117765;28;20051;-76
2021/08/07 09:21:11;;;;;;;0.47;0.40;;;;;;;23.26;52.06;100200.94;5083901;28;20059;-75
2021/08/07 09:23:36;;;;;;;0.90;0.60;;;;;;;23.26;52.37;100205.34;5101120;28;20019;-76
2021/08/07 09:26:18;;;;;;;1.42;0.80;;;;;;;23.22;52.38;100198.47;5083299;28;20084;-76
2021/08/07 09:28:55;;;;;;;1.40;1.00;;;;;;;23.24;52.41;100194.00;5117843;28;20068;-76
2021/08/07 09:31:21;;;;;;;1.25;0.60;;;;;;;23.27;52.23;100196.50;5099349;28;20047;-76
2021/08/07 09:33:49;;;;;;;1.05;0.60;;;;;;;23.32;52.06;100197.22;5117560;28;20466;-76
2021/08/07 09:36:19;;;;;;;0.88;0.77;;;;;;;23.32;52.07;100186.69;5099287;28;20039;-76
2021/08/07 09:38:46;;;;;;;0.88;0.73;;;;;;;23.31;52.27;100196.38;5117293;28;20028;-76
2021/08/07 09:41:12;;;;;;;1.10;0.63;;;;;;;23.27;52.04;100186.81;5100323;28;20027;-76
2021/08/07 09:43:49;;;;;;;1.30;0.60;;;;;;;23.28;52.26;100178.00;5100641;28;20035;-76
2021/08/07 09:46:23;;;;;;;1.02;0.70;;;;;;;23.22;52.18;100172.97;5118578;28;20019;-76
2021/08/07 09:48:51;;;;;;;1.30;0.60;;;;;;;23.15;52.47;100160.88;5119049;28;20047;-76
2021/08/07 09:51:21;;;;;;;1.52;0.80;;;;;;;23.21;52.38;100175.63;5118997;28;20092;-76
2021/08/07 09:54:07;;;;;;;1.13;0.65;;;;;;;23.15;52.42;100172.28;5118110;28;20026;-76
2021/08/07 09:56:43;;;;;;;1.27;0.80;;;;;;;23.22;52.27;100177.38;5117688;28;20059;-76
2021/08/07 09:59:10;;;;;;;1.02;0.50;;;;;;;23.21;52.27;100160.69;5099351;28;20030;-75
2021/08/07 10:01:36;;;;;;;0.52;0.50;;;;;;;23.26;52.17;100163.13;5117582;28;20024;-76
2021/08/07 10:04:06;;;;;;;2.08;0.80;;;;;;;23.24;52.00;100162.34;5117283;28;20023;-76
2021/08/07 10:06:32;;;;;;;5.78;0.90;;;;;;;23.20;51.39;100163.38;5116333;28;20130;-76
2021/08/07 10:08:58;;;;;;;4.07;0.80;;;;;;;23.17;51.53;100159.91;5115700;28;20026;-76
2021/08/07 10:11:26;;;;;;;2.33;0.90;;;;;;;23.16;51.80;100155.56;5097324;28;20027;-76
2021/08/07 10:13:53;;;;;;;1.50;1.02;;;;;;;23.21;51.88;100165.94;5097398;28;20473;-76
2021/08/07 10:16:19;;;;;;;3.40;1.08;;;;;;;23.20;51.84;100152.81;5115487;28;20032;-76
2021/08/07 10:18:45;;;;;;;1.90;1.20;;;;;;;23.13;51.98;100139.81;5097274;28;20028;-76
2021/08/07 10:21:12;;;;;;;1.50;0.63;;;;;;;23.15;51.88;100151.19;5097914;28;20044;-76
2021/08/07 10:23:38;;;;;;;1.55;0.80;;;;;;;23.20;52.02;100158.94;5081169;28;20393;-76
2021/08/07 10:26:05;;;;;;;1.83;0.70;;;;;;;23.18;52.02;100152.88;5097518;28;20028;-76
2021/08/07 10:28:34;;;;;;;1.00;0.70;;;;;;;23.14;51.80;100144.19;5115843;28;20084;-76
2021/08/07 10:31:02;;;;;;;1.88;0.73;;;;;;;23.14;51.88;100149.47;5115710;28;20189;-76
2021/08/07 10:33:28;;;;;;;1.13;0.80;;;;;;;23.22;51.93;100141.31;5097603;28;20116;-76
2021/08/07 10:35:54;;;;;;;1.05;0.75;;;;;;;23.17;52.12;100128.25;5080029;28;20024;-76
2021/08/07 10:38:20;;;;;;;1.38;0.82;;;;;;;23.19;51.96;100130.00;5115052;28;20107;-76
2021/08/07 10:40:46;;;;;;;2.17;0.65;;;;;;;23.19;51.91;100132.63;5079896;28;20474;-76
2021/08/07 10:43:13;;;;;;;1.80;0.85;;;;;;;23.21;51.93;100126.38;5080049;28;20482;-76
2021/08/07 10:45:42;;;;;;;0.82;0.80;;;;;;;23.19;51.75;100122.06;5079955;28;20106;-76
2021/08/07 10:48:38;;;;;;;0.85;0.63;;;;;;;23.23;51.80;100118.41;5096884;28;20041;-76
2021/08/07 10:51:22;;;;;;;0.98;0.80;;;;;;;23.22;52.14;100120.19;5114773;28;20032;-76
2021/08/07 10:53:48;;;;;;;;;;;;;;;23.21;52.13;100114.97;5115046;28;20034;-76
2021/08/07 10:56:28;;;;;;;0.82;0.63;;;;;;;23.23;51.87;100116.66;5096478;28;20335;-76
2021/08/07 10:58:55;;;;;;;0.73;0.60;;;;;;;23.22;52.08;100119.34;5096423;28;20042;-76
2021/08/07 11:01:24;;;;;;;0.68;0.68;;;;;;;23.21;51.84;100112.34;5096671;28;20420;-76
2021/08/07 11:03:50;;;;;;;1.27;0.73;;;;;;;23.22;51.84;100120.19;5114809;28;20543;-76
2021/08/07 11:09:19;;;;;;;0.93;0.60;;;;;;;23.23;51.95;100111.38;5038713;27;1260097;-76
2021/08/07 11:11:46;;;;;;;1.58;0.60;;;;;;;23.20;51.92;100113.25;5049701;28;20037;-74
2021/08/07 11:14:26;;;;;;;0.88;0.63;;;;;;;23.22;52.08;100108.78;5050962;28;20033;-76
2021/08/07 11:17:07;;;;;;;2.90;1.55;;;;;;;23.22;51.84;100106.16;5049454;28;20018;-75
2021/08/07 11:20:05;;;;;;;0.88;0.70;;;;;;;23.21;52.01;100099.16;5049516;28;20091;-76
2021/08/07 11:22:37;;;;;;;0.75;0.47;;;;;;;23.21;52.09;100102.66;5050778;28;20048;-74
2021/08/07 11:25:17;;;;;;;0.73;0.50;;;;;;;23.21;52.35;100091.22;5049434;28;20033;-75
2021/08/07 11:27:46;;;;;;;0.85;0.60;;;;;;;23.22;52.02;100095.59;5049254;28;20471;-76